createdAt,value
2018-11-20T00:00:49.896Z,97498.04
2018-11-20T00:02:23.352Z,97500.46
2018-11-20T00:03:43.534Z,97489.17
2018-11-20T00:04:54.277Z,97502.80
2018-11-20T00:06:12.214Z,97499.85
2018-11-20T00:07:39.658Z,97487.80
2018-11-20T00:09:10.232Z,97489.12
2018-11-20T00:10:30.799Z,97502.06
2018-11-20T00:12:05.936Z,97466.74
2018-11-20T00:13:34.355Z,97487.44
2018-11-20T00:14:54.346Z,97469.69
2018-11-20T00:16:22.306Z,97473.98
2018-11-20T00:17:40.811Z,97468.19
2018-11-20T00:19:00.929Z,97475.92
2018-11-20T00:20:31.710Z,97479.23
2018-11-20T00:21:51.968Z,97486.72
2018-11-20T00:23:19.455Z,97479.78
2018-11-20T00:24:41.231Z,97481.07
2018-11-20T00:26:11.627Z,97482.17
2018-11-20T00:27:36.431Z,97478.70
2018-11-20T00:28:53.479Z,97481.95
2018-11-20T00:30:15.189Z,97468.77
2018-11-20T00:31:37.347Z,97487.83
2018-11-20T00:32:54.308Z,97485.19
2018-11-20T00:34:14.465Z,97487.58
2018-11-20T00:35:37.429Z,97488.14
2018-11-20T00:36:57.452Z,97483.83
2018-11-20T00:38:17.668Z,97475.05
2018-11-20T00:39:42.381Z,97475.09
2018-11-20T00:41:04.941Z,97478.85
2018-11-20T00:42:18.854Z,97471.81
2018-11-20T00:43:38.863Z,97462.40
2018-11-20T00:44:59.602Z,97430.75
2018-11-20T00:46:39.371Z,97455.91
2018-11-20T00:48:06.673Z,97454.23
2018-11-20T00:49:43.140Z,97454.36
2018-11-20T00:51:01.021Z,97429.91
2018-11-20T00:52:21.217Z,97439.87
2018-11-20T00:53:57.846Z,97447.10
2018-11-20T00:55:19.077Z,97442.89
2018-11-20T00:56:42.312Z,97429.20
2018-11-20T00:58:09.599Z,97454.67
2018-11-20T00:59:29.385Z,97452.80
2018-11-20T01:00:51.045Z,97452.85
2018-11-20T01:02:14.728Z,97456.58
2018-11-20T01:03:29.810Z,97451.77
2018-11-20T01:04:50.013Z,97454.69
2018-11-20T01:06:17.379Z,97459.02
2018-11-20T01:07:38.308Z,97450.20
2018-11-20T01:08:50.706Z,97449.95
2018-11-20T01:10:20.796Z,97449.98
2018-11-20T01:11:53.979Z,97458.28
2018-11-20T01:13:34.041Z,97444.07
2018-11-20T01:14:58.261Z,97461.71
2018-11-20T01:16:25.652Z,97464.94
2018-11-20T01:17:50.020Z,97460.05
2018-11-20T01:19:20.601Z,97455.00
2018-11-20T01:20:42.073Z,97457.14
2018-11-20T01:22:12.669Z,97460.25
2018-11-20T01:23:32.568Z,97449.36
2018-11-20T01:24:53.132Z,97453.67
2018-11-20T01:26:07.424Z,97454.41
2018-11-20T01:27:41.337Z,97461.92
2018-11-20T01:29:16.262Z,97455.14
2018-11-20T01:30:46.695Z,97450.22
2018-11-20T01:32:09.177Z,97448.90
2018-11-20T01:33:43.361Z,97455.63
2018-11-20T01:35:15.586Z,97444.07
2018-11-20T01:36:35.977Z,97445.34
2018-11-20T01:37:57.342Z,97434.08
2018-11-20T01:39:26.227Z,97439.81
2018-11-20T01:40:45.934Z,97434.08
2018-11-20T01:42:05.922Z,97445.17
2018-11-20T01:43:45.672Z,97435.30
2018-11-20T01:45:15.153Z,97431.00
2018-11-20T01:46:35.321Z,97434.13
2018-11-20T01:48:05.998Z,97429.77
2018-11-20T01:49:27.391Z,97428.22
2018-11-20T01:51:04.072Z,97422.93
2018-11-20T01:52:28.452Z,97419.15
2018-11-20T01:53:49.564Z,97417.49
2018-11-20T01:55:14.135Z,97399.59
2018-11-20T01:56:34.041Z,97412.77
2018-11-20T01:58:10.357Z,97415.70
2018-11-20T01:59:32.183Z,97403.14
2018-11-20T02:00:52.365Z,97388.69
2018-11-20T02:02:12.261Z,97384.11
2018-11-20T02:03:33.669Z,97383.59
2018-11-20T02:05:13.768Z,97381.44
2018-11-20T02:06:35.162Z,97367.48
2018-11-20T02:07:56.537Z,97379.81
2018-11-20T02:09:29.996Z,97384.88
2018-11-20T02:10:49.827Z,97376.55
2018-11-20T02:12:11.602Z,97378.83
2018-11-20T02:13:51.067Z,97376.00
2018-11-20T02:15:30.417Z,97388.64
2018-11-20T02:16:50.206Z,97371.53
2018-11-20T02:18:10.289Z,97372.66
2018-11-20T02:19:25.751Z,97377.16
2018-11-20T02:20:45.284Z,97375.58
2018-11-20T02:22:07.023Z,97366.72
2018-11-20T02:23:23.496Z,97379.05
2018-11-20T02:24:47.496Z,97387.34
2018-11-20T02:26:17.953Z,97385.74
2018-11-20T02:27:39.874Z,97383.33
2018-11-20T02:29:01.289Z,97365.38
2018-11-20T02:30:16.641Z,97374.78
2018-11-20T02:31:36.864Z,97386.27
2018-11-20T02:33:01.106Z,97382.02
2018-11-20T02:34:25.275Z,97392.20
2018-11-20T02:35:47.327Z,97391.42
2018-11-20T02:36:59.209Z,97397.83
2018-11-20T02:38:18.291Z,97381.48
2018-11-20T02:39:48.740Z,97393.28
2018-11-20T02:41:08.254Z,97373.89
2018-11-20T02:42:28.470Z,97394.36
2018-11-20T02:43:41.619Z,97387.66
2018-11-20T02:45:00.722Z,97393.78
2018-11-20T02:46:15.645Z,97379.91
2018-11-20T02:47:34.693Z,97381.80
2018-11-20T02:48:52.659Z,97380.14
2018-11-20T02:50:28.320Z,97380.70
2018-11-20T02:52:08.041Z,97354.16
2018-11-20T02:53:41.915Z,97347.67
2018-11-20T02:55:06.567Z,97369.66
2018-11-20T02:56:36.685Z,97374.23
2018-11-20T02:58:13.689Z,97366.72
2018-11-20T02:59:41.901Z,97368.09
2018-11-20T03:01:09.329Z,97352.82
2018-11-20T03:02:29.477Z,97358.57
2018-11-20T03:03:49.792Z,97358.55
2018-11-20T03:05:11.680Z,97349.02
2018-11-20T03:06:32.191Z,97355.19
2018-11-20T03:07:52.516Z,97349.85
2018-11-20T03:09:12.728Z,97349.33
2018-11-20T03:10:32.785Z,97358.70
2018-11-20T03:11:53.297Z,97346.36
2018-11-20T03:13:20.846Z,97335.63
2018-11-20T03:14:41.053Z,97343.64
2018-11-20T03:16:05.830Z,97344.49
2018-11-20T03:17:28.031Z,97340.99
2018-11-20T03:18:55.260Z,97327.86
2018-11-20T03:20:15.478Z,97333.72
2018-11-20T03:21:28.350Z,97328.67
2018-11-20T03:22:42.747Z,97306.39
2018-11-20T03:24:01.324Z,97314.98
2018-11-20T03:25:16.061Z,97330.77
2018-11-20T03:26:34.876Z,97331.48
2018-11-20T03:27:50.269Z,97316.23
2018-11-20T03:29:14.802Z,97318.86
2018-11-20T03:30:48.367Z,97323.20
2018-11-20T03:32:18.641Z,97321.30
2018-11-20T03:33:32.158Z,97320.23
2018-11-20T03:34:53.920Z,97311.37
2018-11-20T03:36:21.399Z,97323.92
2018-11-20T03:37:41.083Z,97316.18
2018-11-20T03:39:17.832Z,97293.89
2018-11-20T03:40:42.576Z,97299.51
2018-11-20T03:42:04.528Z,97300.03
2018-11-20T03:43:26.052Z,97298.17
2018-11-20T03:44:43.551Z,97304.48
2018-11-20T03:46:09.668Z,97294.58
2018-11-20T03:47:37.331Z,97297.03
2018-11-20T03:48:52.655Z,97299.22
2018-11-20T03:50:14.036Z,97293.53
2018-11-20T03:51:35.655Z,97286.30
2018-11-20T03:52:57.124Z,97292.65
2018-11-20T03:54:21.417Z,97282.55
2018-11-20T03:55:48.988Z,97283.42
2018-11-20T03:57:13.219Z,97283.82
2018-11-20T03:58:27.639Z,97292.45
2018-11-20T03:59:49.098Z,97261.69
2018-11-20T04:01:14.130Z,97284.18
2018-11-20T04:02:44.901Z,97280.19
2018-11-20T04:04:12.344Z,97267.83
2018-11-20T04:05:39.469Z,97272.08
2018-11-20T04:06:59.258Z,97284.44
2018-11-20T04:08:20.001Z,97275.58
2018-11-20T04:09:40.172Z,97286.08
2018-11-20T04:11:04.587Z,97272.64
2018-11-20T04:12:25.980Z,97264.20
2018-11-20T04:13:48.854Z,97270.19
2018-11-20T04:15:22.345Z,97269.95
2018-11-20T04:16:58.749Z,97265.87
2018-11-20T04:18:29.117Z,97275.81
2018-11-20T04:19:48.580Z,97269.66
2018-11-20T04:21:09.964Z,97274.73
2018-11-20T04:22:30.265Z,97267.70
2018-11-20T04:24:00.662Z,97278.20
2018-11-20T04:25:24.456Z,97279.08
2018-11-20T04:26:44.834Z,97271.78
2018-11-20T04:28:12.101Z,97268.64
2018-11-20T04:29:23.250Z,97266.00
2018-11-20T04:30:43.983Z,97272.90
2018-11-20T04:32:07.070Z,97268.09
2018-11-20T04:33:46.762Z,97266.36
2018-11-20T04:35:06.608Z,97251.09
2018-11-20T04:36:26.689Z,97260.27
2018-11-20T04:37:48.137Z,97261.95
2018-11-20T04:39:13.458Z,97247.72
2018-11-20T04:40:40.665Z,97254.98
2018-11-20T04:42:03.020Z,97261.65
2018-11-20T04:43:24.493Z,97258.16
2018-11-20T04:44:44.248Z,97270.70
2018-11-20T04:46:14.485Z,97249.03
2018-11-20T04:47:39.017Z,97251.19
2018-11-20T04:48:58.756Z,97250.92
2018-11-20T04:50:09.684Z,97242.59
2018-11-20T04:51:46.287Z,97234.84
2018-11-20T04:53:00.057Z,97237.55
2018-11-20T04:54:19.908Z,97232.16
2018-11-20T04:55:39.927Z,97232.38
2018-11-20T04:57:01.414Z,97232.16
2018-11-20T04:58:22.849Z,97235.63
2018-11-20T04:59:40.216Z,97249.00
2018-11-20T05:01:10.682Z,97250.14
2018-11-20T05:02:30.509Z,97237.16
2018-11-20T05:03:58.055Z,97223.23
2018-11-20T05:05:31.603Z,97229.51
2018-11-20T05:07:11.097Z,97237.55
2018-11-20T05:08:33.932Z,97220.42
2018-11-20T05:09:49.646Z,97234.91
2018-11-20T05:11:19.233Z,97239.71
2018-11-20T05:12:38.789Z,97239.97
2018-11-20T05:14:00.235Z,97236.51
2018-11-20T05:15:29.641Z,97227.91
2018-11-20T05:16:52.011Z,97237.98
2018-11-20T05:18:23.358Z,97234.87
2018-11-20T05:19:40.037Z,97241.58
2018-11-20T05:21:10.764Z,97238.86
2018-11-20T05:22:37.874Z,97243.56
2018-11-20T05:24:14.450Z,97248.50
2018-11-20T05:25:29.696Z,97248.44
2018-11-20T05:26:51.555Z,97241.22
2018-11-20T05:28:15.614Z,97245.79
2018-11-20T05:29:35.432Z,97257.86
2018-11-20T05:30:45.556Z,97237.34
2018-11-20T05:32:07.339Z,97231.80
2018-11-20T05:33:47.059Z,97235.55
2018-11-20T05:35:01.056Z,97238.09
2018-11-20T05:36:25.180Z,97221.00
2018-11-20T05:37:46.896Z,97228.55
2018-11-20T05:39:17.598Z,97220.21
2018-11-20T05:40:36.695Z,97230.94
2018-11-20T05:41:58.119Z,97232.80
2018-11-20T05:43:31.917Z,97223.64
2018-11-20T05:44:59.133Z,97224.95
2018-11-20T05:46:32.749Z,97249.13
2018-11-20T05:48:06.156Z,97249.97
2018-11-20T05:49:39.988Z,97242.78
2018-11-20T05:51:12.333Z,97236.56
2018-11-20T05:52:28.643Z,97244.61
2018-11-20T05:53:53.563Z,97240.36
2018-11-20T05:55:25.000Z,97224.46
2018-11-20T05:56:46.401Z,97236.53
2018-11-20T05:58:10.990Z,97224.53
2018-11-20T05:59:27.417Z,97226.10
2018-11-20T06:00:49.106Z,97217.80
2018-11-20T06:02:27.299Z,97217.80
2018-11-20T06:03:54.842Z,97233.36
2018-11-20T06:05:16.238Z,97216.75
2018-11-20T06:06:38.232Z,97226.25
2018-11-20T06:08:05.978Z,97211.84
2018-11-20T06:09:22.673Z,97225.05
2018-11-20T06:10:36.784Z,97226.69
2018-11-20T06:12:10.649Z,97231.47
2018-11-20T06:13:40.764Z,97227.17
2018-11-20T06:15:00.732Z,97218.58
2018-11-20T06:16:26.118Z,97226.63
2018-11-20T06:17:51.040Z,97232.28
2018-11-20T06:19:11.199Z,97228.71
2018-11-20T06:20:38.926Z,97223.19
2018-11-20T06:22:06.342Z,97217.23
2018-11-20T06:23:29.482Z,97212.17
2018-11-20T06:24:50.465Z,97212.13
2018-11-20T06:26:12.569Z,97220.14
2018-11-20T06:27:32.562Z,97202.78
2018-11-20T06:29:00.425Z,97193.63
2018-11-20T06:30:23.140Z,97209.48
2018-11-20T06:46:33.532Z,97190.09
2018-11-20T06:48:00.927Z,97216.45
2018-11-20T06:49:21.047Z,97192.58
2018-11-20T06:51:00.767Z,97189.27
2018-11-20T06:52:21.163Z,97188.52
2018-11-20T06:53:45.335Z,97174.11
2018-11-20T06:55:05.423Z,97197.68
2018-11-20T06:56:21.606Z,97180.81
2018-11-20T06:57:55.752Z,97189.90
2018-11-20T06:59:19.899Z,97191.77
2018-11-20T07:00:41.292Z,97203.45
2018-11-20T07:02:12.375Z,97188.26
2018-11-20T07:03:39.645Z,97189.75
2018-11-20T07:05:04.475Z,97201.26
2018-11-20T07:06:40.865Z,97195.38
2018-11-20T07:07:51.821Z,97181.78
2018-11-20T07:09:25.481Z,97187.92
2018-11-20T07:11:04.136Z,97187.92
2018-11-20T07:12:23.901Z,97200.78
2018-11-20T07:14:01.121Z,97188.67
2018-11-20T07:15:30.066Z,97197.80
2018-11-20T07:16:51.496Z,97194.85
2018-11-20T07:17:59.892Z,97196.72
2018-11-20T07:19:21.752Z,97197.27
2018-11-20T07:20:46.442Z,97202.34
2018-11-20T07:22:07.882Z,97200.22
2018-11-20T07:23:28.427Z,97201.81
2018-11-20T07:24:49.233Z,97218.62
2018-11-20T07:26:09.260Z,97211.87
2018-11-20T07:27:28.739Z,97204.69
2018-11-20T07:28:51.019Z,97215.86
2018-11-20T07:30:22.254Z,97211.02
2018-11-20T07:31:56.134Z,97223.91
2018-11-20T07:33:17.517Z,97217.23
2018-11-20T07:34:48.198Z,97203.83
2018-11-20T07:36:25.295Z,97212.17
2018-11-20T07:37:37.527Z,97212.09
2018-11-20T07:38:57.004Z,97217.80
2018-11-20T07:40:24.340Z,97216.45
2018-11-20T07:41:51.559Z,97209.67
2018-11-20T07:43:08.798Z,97210.80
2018-11-20T07:44:20.370Z,97207.25
2018-11-20T07:45:44.941Z,97199.98
2018-11-20T07:47:24.924Z,97204.56
2018-11-20T07:48:56.170Z,97212.58
2018-11-20T07:50:10.953Z,97195.41
2018-11-20T07:51:50.723Z,97203.49
2018-11-20T07:53:12.070Z,97198.98
2018-11-20T07:54:40.966Z,97214.78
2018-11-20T07:56:05.420Z,97204.31
2018-11-20T07:57:25.256Z,97207.77
2018-11-20T07:58:55.001Z,97206.47
2018-11-20T08:00:07.835Z,97209.94
2018-11-20T08:01:27.678Z,97193.84
2018-11-20T08:02:44.386Z,97209.67
2018-11-20T08:04:26.832Z,97217.72
2018-11-20T08:05:53.412Z,97221.70
2018-11-20T08:07:14.107Z,97201.06
2018-11-20T08:08:52.729Z,97203.94
2018-11-20T08:10:14.529Z,97207.40
2018-11-20T08:11:37.250Z,97200.95
2018-11-20T08:13:01.514Z,97212.50
2018-11-20T08:14:13.306Z,97196.10
2018-11-20T08:15:33.743Z,97202.30
2018-11-20T08:17:01.941Z,97195.28
2018-11-20T08:18:23.292Z,97189.69
2018-11-20T08:19:53.801Z,97192.08
2018-11-20T08:21:17.459Z,97197.45
2018-11-20T08:22:38.069Z,97197.78
2018-11-20T08:24:00.057Z,97193.64
2018-11-20T08:25:40.515Z,97190.09
2018-11-20T08:26:53.142Z,97206.58
2018-11-20T08:28:30.162Z,97203.07
2018-11-20T08:29:51.621Z,97191.22
2018-11-20T08:31:11.771Z,97202.33
2018-11-20T08:32:35.752Z,97209.30
2018-11-20T08:33:56.198Z,97190.18
2018-11-20T08:35:15.436Z,97205.98
2018-11-20T08:36:29.839Z,97210.05
2018-11-20T08:37:56.235Z,97200.91
2018-11-20T08:39:30.344Z,97205.63
2018-11-20T08:40:54.190Z,97208.88
2018-11-20T08:42:18.761Z,97212.48
2018-11-20T08:43:52.228Z,97191.66
2018-11-20T08:45:12.325Z,97198.70
2018-11-20T08:46:32.148Z,97200.83
2018-11-20T08:47:56.698Z,97192.78
2018-11-20T08:49:23.040Z,97195.69
2018-11-20T08:50:44.864Z,97201.02
2018-11-20T08:52:18.548Z,97194.35
2018-11-20T08:53:52.108Z,97197.34
2018-11-20T08:55:11.882Z,97190.02
2018-11-20T08:56:36.650Z,97192.66
2018-11-20T08:57:56.883Z,97197.64
2018-11-20T08:59:27.080Z,97200.98
2018-11-20T09:01:00.817Z,97196.69
2018-11-20T09:02:34.855Z,97197.72
2018-11-20T09:03:55.169Z,97195.35
2018-11-20T09:05:14.893Z,97193.83
2018-11-20T09:06:45.972Z,97198.84
2018-11-20T09:08:18.229Z,97195.17
2018-11-20T09:09:49.422Z,97194.78
2018-11-20T09:11:17.058Z,97210.77
2018-11-20T09:12:35.658Z,97204.34
2018-11-20T09:13:54.455Z,97208.95
2018-11-20T09:15:19.096Z,97199.59
2018-11-20T09:16:39.120Z,97202.06
2018-11-20T09:18:02.676Z,97194.09
2018-11-20T09:19:22.701Z,97204.60
2018-11-20T09:20:45.332Z,97185.30
2018-11-20T09:22:04.055Z,97204.43
2018-11-20T09:23:25.446Z,97207.37
2018-11-20T09:24:52.063Z,97209.93
2018-11-20T09:26:10.515Z,97198.55
2018-11-20T09:27:50.321Z,97210.50
2018-11-20T09:29:20.746Z,97207.64
2018-11-20T09:30:42.208Z,97202.36
2018-11-20T09:32:05.349Z,97205.60
2018-11-20T09:33:41.907Z,97198.94
2018-11-20T09:35:06.209Z,97225.91
2018-11-20T09:36:26.879Z,97207.98
2018-11-20T09:37:46.829Z,97209.59
2018-11-20T09:39:02.935Z,97205.00
2018-11-20T09:40:33.734Z,97196.38
2018-11-20T09:42:12.306Z,97190.32
2018-11-20T09:43:42.171Z,97180.58
2018-11-20T09:45:21.581Z,97185.43
2018-11-20T09:46:44.114Z,97193.36
2018-11-20T09:48:06.552Z,97183.83
2018-11-20T09:49:26.467Z,97184.50
2018-11-20T09:50:47.885Z,97190.80
2018-11-20T09:52:09.856Z,97185.73
2018-11-20T09:53:31.400Z,97194.09
2018-11-20T09:54:51.271Z,97182.95
2018-11-20T09:56:11.335Z,97184.17
2018-11-20T09:57:32.766Z,97183.87
2018-11-20T09:58:53.280Z,97175.86
2018-11-20T10:00:13.378Z,97182.27
2018-11-20T10:01:45.330Z,97173.13
2018-11-20T10:02:59.127Z,97180.88
2018-11-20T10:04:21.195Z,97187.88
2018-11-20T10:05:42.702Z,97186.80
2018-11-20T10:07:17.614Z,97187.66
2018-11-20T10:08:47.332Z,97181.80
2018-11-20T10:10:21.546Z,97173.11
2018-11-20T10:11:42.131Z,97184.55
2018-11-20T10:13:02.306Z,97177.05
2018-11-20T10:14:23.780Z,97172.69
2018-11-20T10:16:00.698Z,97177.84
2018-11-20T10:17:27.997Z,97179.45
2018-11-20T10:19:10.187Z,97180.82
2018-11-20T10:20:30.259Z,97163.27
2018-11-20T10:21:50.186Z,97170.27
2018-11-20T10:23:11.346Z,97172.07
2018-11-20T10:24:34.065Z,97167.00
2018-11-20T10:26:07.457Z,97174.71
2018-11-20T10:27:29.052Z,97153.62
2018-11-20T10:28:53.708Z,97153.89
2018-11-20T10:30:30.180Z,97153.82
2018-11-20T10:31:57.689Z,97151.70
2018-11-20T10:33:33.760Z,97137.59
2018-11-20T10:34:53.937Z,97128.82
2018-11-20T10:36:08.596Z,97134.91
2018-11-20T10:37:29.969Z,97135.69
2018-11-20T10:39:00.359Z,97139.47
2018-11-20T10:40:32.376Z,97111.36
2018-11-20T10:41:57.822Z,97125.39
2018-11-20T10:43:19.754Z,97110.84
2018-11-20T10:44:48.177Z,97118.02
2018-11-20T10:46:18.996Z,97119.87
2018-11-20T10:47:38.655Z,97113.41
2018-11-20T10:48:51.621Z,97114.49
2018-11-20T10:50:27.990Z,97119.81
2018-11-20T10:52:01.367Z,97117.86
2018-11-20T10:53:28.453Z,97113.44
2018-11-20T10:54:53.426Z,97115.53
2018-11-20T10:56:18.331Z,97108.12
2018-11-20T10:57:40.469Z,97107.00
2018-11-20T10:59:10.857Z,97093.34
2018-11-20T11:00:32.797Z,97114.95
2018-11-20T11:01:56.726Z,97108.27
2018-11-20T11:03:17.144Z,97112.02
2018-11-20T11:04:37.633Z,97090.56
2018-11-20T11:05:57.708Z,97093.11
2018-11-20T11:07:29.213Z,97111.19
2018-11-20T11:08:49.700Z,97109.83
2018-11-20T11:09:56.002Z,97088.23
2018-11-20T11:11:17.397Z,97103.02
2018-11-20T11:12:38.968Z,97100.67
2018-11-20T11:14:11.200Z,97100.02
2018-11-20T11:15:36.373Z,97092.13
2018-11-20T11:17:00.748Z,97100.22
2018-11-20T11:18:19.908Z,97097.34
2018-11-20T11:19:40.175Z,97092.97
2018-11-20T11:20:58.229Z,97092.61
2018-11-20T11:22:19.553Z,97097.79
2018-11-20T11:23:39.684Z,97086.41
2018-11-20T11:24:59.870Z,97090.92
2018-11-20T11:26:33.610Z,97088.66
2018-11-20T11:27:53.827Z,97086.58
2018-11-20T11:29:15.980Z,97083.33
2018-11-20T11:30:35.411Z,97100.70
2018-11-20T11:44:55.742Z,97075.84
2018-11-20T11:46:20.024Z,97076.73
2018-11-20T11:47:41.829Z,97073.00
2018-11-20T11:49:22.061Z,97079.01
2018-11-20T11:50:58.098Z,97078.90
2018-11-20T11:52:11.193Z,97062.41
2018-11-20T11:53:48.069Z,97075.38
2018-11-20T11:55:09.858Z,97078.75
2018-11-20T11:56:29.990Z,97085.88
2018-11-20T11:57:50.717Z,97075.91
2018-11-20T11:59:29.711Z,97079.61
2018-11-20T12:00:57.702Z,97091.16
2018-11-20T12:03:57.837Z,97096.07
2018-11-20T12:05:22.100Z,97097.41
2018-11-20T12:06:41.523Z,97088.16
2018-11-20T12:08:13.285Z,97087.42
2018-11-20T12:09:22.599Z,97097.56
2018-11-20T12:10:39.708Z,97085.27
2018-11-20T12:12:10.717Z,97078.01
2018-11-20T12:13:35.433Z,97087.47
2018-11-20T12:14:57.417Z,97081.85
2018-11-20T12:16:23.196Z,97081.55
2018-11-20T12:17:43.613Z,97079.06
2018-11-20T12:19:20.039Z,97074.98
2018-11-20T12:20:43.266Z,97086.23
2018-11-20T12:22:02.052Z,97081.00
2018-11-20T12:23:37.080Z,97084.58
2018-11-20T12:25:06.689Z,97082.84
2018-11-20T12:26:26.796Z,97085.62
2018-11-20T12:28:03.332Z,97076.53
2018-11-20T12:29:39.140Z,97079.16
2018-11-20T12:31:00.525Z,97051.94
2018-11-20T12:32:31.217Z,97068.98
2018-11-20T12:34:07.772Z,97078.61
2018-11-20T12:35:33.085Z,97074.88
2018-11-20T12:36:49.805Z,97085.78
2018-11-20T12:38:11.061Z,97082.79
2018-11-20T12:39:50.854Z,97075.80
2018-11-20T12:41:21.160Z,97074.77
2018-11-20T12:42:44.341Z,97092.34
2018-11-20T12:44:05.924Z,97088.16
2018-11-20T12:45:30.274Z,97090.25
2018-11-20T12:47:09.340Z,97087.67
2018-11-20T12:48:27.977Z,97074.87
2018-11-20T12:49:51.884Z,97071.45
2018-11-20T12:51:25.465Z,97087.73
2018-11-20T12:52:44.414Z,97084.13
2018-11-20T12:54:14.955Z,97085.14
2018-11-20T12:55:46.245Z,97081.78
2018-11-20T12:57:13.942Z,97077.86
2018-11-20T12:58:45.643Z,97082.36
2018-11-20T13:00:12.848Z,97073.67
2018-11-20T13:01:35.061Z,97064.46
2018-11-20T13:03:02.201Z,97078.90
2018-11-20T13:04:21.237Z,97076.47
2018-11-20T13:05:52.046Z,97082.63
2018-11-20T13:07:20.067Z,97063.17
2018-11-20T13:08:50.206Z,97086.66
2018-11-20T13:10:15.746Z,97094.92
2018-11-20T13:11:46.748Z,97107.36
2018-11-20T13:13:07.311Z,97102.55
2018-11-20T13:14:46.885Z,97099.81
2018-11-20T13:16:20.669Z,97108.10
2018-11-20T13:17:42.597Z,97105.03
2018-11-20T13:19:21.907Z,97087.85
2018-11-20T13:20:38.232Z,97104.37
2018-11-20T13:21:59.851Z,97099.97
2018-11-20T13:23:25.572Z,97099.31
2018-11-20T13:24:52.754Z,97114.34
2018-11-20T13:26:17.215Z,97118.63
2018-11-20T13:27:45.783Z,97115.73
2018-11-20T13:29:11.998Z,97124.16
2018-11-20T13:30:39.829Z,97121.74
2018-11-20T13:32:01.283Z,97117.87
2018-11-20T13:33:23.434Z,97119.61
2018-11-20T13:34:55.480Z,97116.09
2018-11-20T13:36:22.923Z,97110.26
2018-11-20T13:37:46.648Z,97099.98
2018-11-20T13:39:26.203Z,97106.64
2018-11-20T13:40:52.071Z,97103.65
2018-11-20T13:42:13.597Z,97104.38
2018-11-20T13:43:37.289Z,97112.29
2018-11-20T13:44:55.772Z,97100.25
2018-11-20T13:46:32.278Z,97110.56
2018-11-20T13:47:54.300Z,97096.58
2018-11-20T13:49:14.382Z,97108.56
2018-11-20T13:50:31.817Z,97101.49
2018-11-20T13:51:54.459Z,97109.54
2018-11-20T13:53:21.751Z,97104.58
2018-11-20T13:54:43.690Z,97107.92
2018-11-20T13:56:03.487Z,97105.86
2018-11-20T13:57:25.429Z,97106.07
2018-11-20T13:58:46.909Z,97115.47
2018-11-20T14:00:22.965Z,97108.10
2018-11-20T14:01:46.256Z,97111.41
2018-11-20T14:03:11.396Z,97103.84
2018-11-20T14:04:33.762Z,97092.33
2018-11-20T14:05:54.060Z,97099.86
2018-11-20T14:07:14.165Z,97107.52
2018-11-20T14:08:32.876Z,97103.70
2018-11-20T14:09:54.405Z,97097.34
2018-11-20T14:11:21.956Z,97094.19
2018-11-20T14:12:43.623Z,97093.27
2018-11-20T14:14:06.622Z,97099.36
2018-11-20T14:15:26.756Z,97099.87
2018-11-20T14:17:01.585Z,97099.71
2018-11-20T14:18:33.353Z,97090.45
2018-11-20T14:19:47.275Z,97091.66
2018-11-20T14:21:23.732Z,97087.58
2018-11-20T14:22:49.086Z,97090.36
2018-11-20T14:24:12.133Z,97089.50
2018-11-20T14:25:39.721Z,97081.13
2018-11-20T14:27:12.623Z,97082.45
2018-11-20T14:28:44.903Z,97082.36
2018-11-20T14:30:02.974Z,97064.14
2018-11-20T14:31:23.229Z,97056.59
2018-11-20T14:32:53.750Z,97068.47
2018-11-20T14:34:16.352Z,97074.72
2018-11-20T14:35:40.539Z,97071.55
2018-11-20T14:37:05.457Z,97061.48
2018-11-20T14:38:39.650Z,97069.23
2018-11-20T14:40:03.852Z,97061.84
2018-11-20T14:41:22.854Z,97055.96
2018-11-20T14:42:53.082Z,97040.78
2018-11-20T14:44:13.087Z,97049.42
2018-11-20T14:45:33.420Z,97059.95
2018-11-20T14:46:53.673Z,97062.73
2018-11-20T14:48:18.481Z,97055.59
2018-11-20T14:49:42.796Z,97059.30
2018-11-20T14:51:10.217Z,97061.74
2018-11-20T14:52:36.309Z,97055.14
2018-11-20T14:53:46.232Z,97063.44
2018-11-20T14:55:07.746Z,97064.38
2018-11-20T14:56:17.808Z,97051.79
2018-11-20T14:57:38.631Z,97054.83
2018-11-20T14:59:08.434Z,97055.22
2018-11-20T15:00:28.675Z,97058.55
2018-11-20T15:01:48.833Z,97052.14
2018-11-20T15:03:25.564Z,97059.82
2018-11-20T15:04:53.434Z,97054.92
2018-11-20T15:06:13.359Z,97045.92
2018-11-20T15:07:40.599Z,97032.77
2018-11-20T15:09:01.998Z,97047.36
2018-11-20T15:10:23.898Z,97051.64
2018-11-20T15:11:51.650Z,97046.11
2018-11-20T15:13:12.971Z,97056.03
2018-11-20T15:14:31.682Z,97061.14
2018-11-20T15:16:09.010Z,97062.88
2018-11-20T15:17:36.377Z,97069.58
2018-11-20T15:19:09.762Z,97069.45
2018-11-20T15:20:31.257Z,97077.28
2018-11-20T15:22:04.878Z,97073.03
2018-11-20T15:23:26.707Z,97083.77
2018-11-20T15:24:48.218Z,97091.34
2018-11-20T15:26:18.633Z,97093.67
2018-11-20T15:27:50.171Z,97102.53
2018-11-20T15:29:11.412Z,97101.33
2018-11-20T15:30:40.919Z,97111.49
2018-11-20T15:32:01.222Z,97106.47
2018-11-20T15:33:28.884Z,97113.05
2018-11-20T15:34:49.182Z,97114.73
2018-11-20T15:36:09.066Z,97116.97
2018-11-20T15:37:21.810Z,97124.46
2018-11-20T15:38:43.060Z,97125.23
2018-11-20T15:40:03.561Z,97128.80
2018-11-20T15:41:23.551Z,97130.16
2018-11-20T15:42:47.804Z,97130.34
2018-11-20T15:44:08.133Z,97128.66
2018-11-20T15:45:28.464Z,97133.97
2018-11-20T15:47:05.490Z,97126.48
2018-11-20T15:48:27.926Z,97127.81
2018-11-20T15:49:57.325Z,97134.59
2018-11-20T15:51:18.432Z,97135.05
2018-11-20T15:52:29.700Z,97125.21
2018-11-20T15:53:49.590Z,97122.16
2018-11-20T15:55:10.958Z,97124.24
2018-11-20T15:56:44.471Z,97125.28
2018-11-20T15:57:58.978Z,97120.14
2018-11-20T15:59:26.510Z,97121.44
2018-11-20T16:00:50.381Z,97122.34
2018-11-20T16:02:09.471Z,97118.84
2018-11-20T16:03:39.943Z,97120.95
2018-11-20T16:05:06.875Z,97126.62
2018-11-20T16:06:33.788Z,97122.64
2018-11-20T16:08:06.979Z,97123.00
2018-11-20T16:09:40.141Z,97123.70
2018-11-20T16:11:08.291Z,97124.03
2018-11-20T16:12:42.844Z,97121.14
2018-11-20T16:14:11.285Z,97122.26
2018-11-20T16:15:31.160Z,97114.52
2018-11-20T16:16:47.962Z,97122.08
2018-11-20T16:18:08.036Z,97118.84
2018-11-20T16:19:43.260Z,97122.08
2018-11-20T16:21:14.050Z,97121.00
2018-11-20T16:22:45.729Z,97127.95
2018-11-20T16:24:21.065Z,97132.80
2018-11-20T16:25:43.217Z,97131.16
2018-11-20T16:27:04.935Z,97132.02
2018-11-20T16:28:38.556Z,97145.17
2018-11-20T16:29:58.744Z,97140.06
2018-11-20T16:31:23.458Z,97146.52
2018-11-20T16:33:02.872Z,97145.66
2018-11-20T16:34:42.215Z,97156.03
2018-11-20T16:36:03.156Z,97151.75
2018-11-20T16:37:32.215Z,97153.62
2018-11-20T16:38:53.317Z,97154.92
2018-11-20T16:40:13.234Z,97151.45
2018-11-20T16:41:49.950Z,97148.52
2018-11-20T16:43:14.495Z,97151.45
2018-11-20T16:44:38.964Z,97150.94
2018-11-20T16:46:06.866Z,97152.80
2018-11-20T16:47:26.691Z,97155.48
2018-11-20T16:48:48.493Z,97157.64
2018-11-20T16:50:04.690Z,97149.33
2018-11-20T16:51:29.273Z,97146.66
2018-11-20T16:53:02.874Z,97157.87
2018-11-20T16:54:23.370Z,97151.20
2018-11-20T16:55:50.458Z,97155.14
2018-11-20T16:57:17.822Z,97167.14
2018-11-20T16:58:42.745Z,97165.66
2018-11-20T17:00:13.521Z,97172.32
2018-11-20T17:01:37.499Z,97167.47
2018-11-20T17:03:14.311Z,97168.06
2018-11-20T17:04:47.903Z,97161.33